createdAt,value
2018-06-08T00:00:44.338Z,19.97
2018-06-08T00:03:13.318Z,22.53
2018-06-08T00:05:49.509Z,23.60
2018-06-08T00:08:18.284Z,24.27
2018-06-08T00:10:49.223Z,22.43
2018-06-08T00:13:18.371Z,24.13
2018-06-08T00:15:55.187Z,25.13
2018-06-08T00:18:24.081Z,24.67
2018-06-08T00:20:54.203Z,23.23
2018-06-08T00:23:23.265Z,27.20
2018-06-08T00:26:00.015Z,28.47
2018-06-08T00:28:28.983Z,27.73
2018-06-08T00:31:01.518Z,25.47
2018-06-08T00:33:31.010Z,26.70
2018-06-08T00:36:02.914Z,26.23
2018-06-08T00:38:31.763Z,30.40
2018-06-08T00:41:08.252Z,30.17
2018-06-08T00:43:37.207Z,30.57
2018-06-08T00:46:09.308Z,31.67
2018-06-08T00:48:39.242Z,30.20
2018-06-08T00:51:15.181Z,35.98
2018-06-08T00:53:44.391Z,38.30
2018-06-08T00:56:28.380Z,33.40
2018-06-08T00:58:57.482Z,31.13
2018-06-08T01:01:26.308Z,36.20
2018-06-08T01:03:55.389Z,31.53
2018-06-08T01:06:24.393Z,34.03
2018-06-08T01:08:53.888Z,32.97
2018-06-08T01:11:22.712Z,33.50
2018-06-08T01:13:52.023Z,36.77
2018-06-08T01:16:24.906Z,31.07
2018-06-08T01:18:54.130Z,34.57
2018-06-08T01:21:25.267Z,37.10
2018-06-08T01:23:54.099Z,35.67
2018-06-08T01:26:30.009Z,37.80
2018-06-08T01:28:59.883Z,32.27
2018-06-08T01:31:30.222Z,34.27
2018-06-08T01:33:59.605Z,35.23
2018-06-08T01:36:32.089Z,36.50
2018-06-08T01:39:00.903Z,35.33
2018-06-08T01:41:38.609Z,36.80
2018-06-08T01:44:08.297Z,36.67
2018-06-08T01:46:37.144Z,39.83
2018-06-08T01:49:06.758Z,33.20
2018-06-08T01:51:39.149Z,34.53
2018-06-08T01:54:07.927Z,37.17
2018-06-08T01:56:44.376Z,34.30
2018-06-08T01:59:13.567Z,34.07
2018-06-08T02:01:43.722Z,33.80
2018-06-08T02:04:12.653Z,36.23
2018-06-08T02:06:49.125Z,35.20
2018-06-08T02:09:17.879Z,35.30
2018-06-08T02:11:50.016Z,35.30
2018-06-08T02:14:19.014Z,32.40
2018-06-08T02:16:51.929Z,34.27
2018-06-08T02:19:22.714Z,32.37
2018-06-08T02:21:55.184Z,35.17
2018-06-08T02:24:24.073Z,36.03
2018-06-08T02:26:56.281Z,32.87
2018-06-08T02:29:27.408Z,38.63
2018-06-08T02:31:59.639Z,35.17
2018-06-08T02:34:28.576Z,33.90
2018-06-08T02:37:05.237Z,32.77
2018-06-08T02:39:33.643Z,35.17
2018-06-08T02:42:06.398Z,36.90
2018-06-08T02:44:35.513Z,35.90
2018-06-08T02:47:09.253Z,36.83
2018-06-08T02:49:38.019Z,37.43
2018-06-08T02:52:11.318Z,37.90
2018-06-08T02:54:40.195Z,40.90
2018-06-08T02:57:12.801Z,38.67
2018-06-08T02:59:42.186Z,41.77
2018-06-08T03:02:18.176Z,38.07
2018-06-08T03:04:47.176Z,44.03
2018-06-08T03:07:18.088Z,37.77
2018-06-08T03:09:47.949Z,41.57
2018-06-08T03:12:20.477Z,42.87
2018-06-08T03:14:49.266Z,40.83
2018-06-08T03:17:22.424Z,45.07
2018-06-08T03:19:51.416Z,45.33
2018-06-08T03:22:23.889Z,42.43
2018-06-08T03:24:52.594Z,54.67
2018-06-08T03:27:31.611Z,55.50
2018-06-08T03:30:00.349Z,48.87
2018-06-08T03:32:29.189Z,53.40
2018-06-08T03:34:58.508Z,52.63
2018-06-08T03:37:31.297Z,52.67
2018-06-08T03:40:00.011Z,55.13
2018-06-08T03:42:32.905Z,52.40
2018-06-08T03:45:02.112Z,58.97
2018-06-08T03:47:34.854Z,59.57
2018-06-08T03:50:03.712Z,57.47
2018-06-08T03:52:39.806Z,59.17
2018-06-08T03:55:08.710Z,61.73
2018-06-08T03:57:41.625Z,55.23
2018-06-08T04:00:11.131Z,61.03
2018-06-08T04:02:43.319Z,60.10
2018-06-08T04:05:12.622Z,60.20
2018-06-08T04:07:45.142Z,67.60
2018-06-08T04:10:14.287Z,64.83
2018-06-08T04:12:52.044Z,71.27
2018-06-08T04:15:22.757Z,67.50
2018-06-08T04:17:51.532Z,62.37
2018-06-08T04:20:20.251Z,70.40
2018-06-08T04:22:52.911Z,77.23
2018-06-08T04:25:22.701Z,78.53
2018-06-08T04:27:58.763Z,81.27
2018-06-08T04:30:28.552Z,73.90
2018-06-08T04:32:59.215Z,72.80
2018-06-08T04:35:28.266Z,77.30
2018-06-08T04:38:00.590Z,76.53
2018-06-08T04:40:30.346Z,78.80
2018-06-08T04:43:06.667Z,76.23
2018-06-08T04:45:35.427Z,78.53
2018-06-08T04:48:08.161Z,80.13
2018-06-08T04:50:38.117Z,83.97
2018-06-08T04:53:10.244Z,76.57
2018-06-08T04:55:39.038Z,79.50
2018-06-08T04:58:12.055Z,81.47
2018-06-08T05:00:40.802Z,79.57
2018-06-08T05:03:17.237Z,81.53
2018-06-08T05:05:47.033Z,80.20
2018-06-08T05:08:16.764Z,76.37
2018-06-08T05:10:45.682Z,78.37
2018-06-08T05:13:19.419Z,80.43
2018-06-08T05:15:48.155Z,83.27
2018-06-08T05:18:21.164Z,87.87
2018-06-08T05:20:50.200Z,85.73
2018-06-08T05:23:26.036Z,82.37
2018-06-08T05:25:54.804Z,78.40
2018-06-08T05:28:25.634Z,83.70
2018-06-08T05:30:54.370Z,87.17
2018-06-08T05:33:32.018Z,84.50
2018-06-08T05:36:01.112Z,95.93
2018-06-08T05:38:30.513Z,88.90
2018-06-08T05:40:59.417Z,87.27
2018-06-08T05:43:36.577Z,90.17
2018-06-08T05:46:05.421Z,86.03
2018-06-08T05:48:35.425Z,94.47
2018-06-08T05:51:04.695Z,89.43
2018-06-08T05:53:37.689Z,90.20
2018-06-08T05:56:06.431Z,88.53
2018-06-08T05:58:43.118Z,91.20
2018-06-08T06:01:12.130Z,89.17
2018-06-08T06:03:41.998Z,85.53
2018-06-08T06:06:11.066Z,90.90
2018-06-08T06:08:47.101Z,90.20
2018-06-08T06:11:15.892Z,92.00
2018-06-08T06:13:48.162Z,87.30
2018-06-08T06:16:18.626Z,87.83
2018-06-08T06:18:49.613Z,90.13
2018-06-08T06:21:18.631Z,82.77
2018-06-08T06:23:51.755Z,92.83
2018-06-08T06:26:20.607Z,88.93
2018-06-08T06:28:56.744Z,86.57
2018-06-08T06:31:26.279Z,86.07
2018-06-08T06:33:57.857Z,87.53
2018-06-08T06:36:27.216Z,86.57
2018-06-08T06:38:59.526Z,83.53
2018-06-08T06:41:28.712Z,81.47
2018-06-08T06:44:05.453Z,78.43
2018-06-08T06:46:34.963Z,78.87
2018-06-08T06:49:05.685Z,88.07
2018-06-08T06:51:35.096Z,78.60
2018-06-08T06:54:09.149Z,86.20
2018-06-08T06:56:37.902Z,79.57
2018-06-08T06:59:15.187Z,79.37
2018-06-08T07:01:44.662Z,85.67
2018-06-08T07:04:13.639Z,81.20
2018-06-08T07:06:42.807Z,80.80
2018-06-08T07:09:16.140Z,87.27
2018-06-08T07:11:44.951Z,86.80
2018-06-08T07:14:18.621Z,83.33
2018-06-08T07:16:49.232Z,76.50
2018-06-08T07:19:23.057Z,81.53
2018-06-08T07:21:52.322Z,80.93
2018-06-08T07:24:27.788Z,82.73
2018-06-08T07:26:58.280Z,86.57
2018-06-08T07:29:28.706Z,81.97
2018-06-08T07:31:57.493Z,81.03
2018-06-08T07:34:31.186Z,80.53
2018-06-08T07:37:01.041Z,78.40
2018-06-08T07:39:31.155Z,75.77
2018-06-08T07:42:20.388Z,72.63
2018-06-08T07:44:50.601Z,77.30
2018-06-08T07:47:20.202Z,78.00
2018-06-08T07:49:49.919Z,76.33
2018-06-08T07:52:19.330Z,78.93
2018-06-08T07:54:49.387Z,76.10
2018-06-08T07:57:18.760Z,75.57
2018-06-08T07:59:47.520Z,74.67
2018-06-08T08:02:21.934Z,72.60
2018-06-08T08:04:51.556Z,69.73
2018-06-08T08:07:21.163Z,71.07
2018-06-08T08:09:50.353Z,68.50
2018-06-08T08:12:20.168Z,68.67
2018-06-08T08:14:50.201Z,67.27
2018-06-08T08:17:20.854Z,72.90
2018-06-08T08:19:50.905Z,69.57
2018-06-08T08:22:19.766Z,68.63
2018-06-08T08:24:57.734Z,67.83
2018-06-08T08:27:27.427Z,70.00
2018-06-08T08:29:57.210Z,70.83
2018-06-08T08:32:26.160Z,71.17
2018-06-08T08:35:00.701Z,70.77
2018-06-08T08:37:33.722Z,73.80
2018-06-08T08:40:04.822Z,66.43
2018-06-08T08:42:34.076Z,64.73
2018-06-08T08:45:04.421Z,69.80
2018-06-08T08:47:35.527Z,66.37
2018-06-08T08:50:06.858Z,64.87
2018-06-08T08:52:36.657Z,66.23
2018-06-08T08:55:10.671Z,65.83
2018-06-08T08:57:40.177Z,61.07
2018-06-08T09:00:11.811Z,64.83
2018-06-08T09:02:41.579Z,64.60
2018-06-08T09:05:15.966Z,60.50
2018-06-08T09:07:45.614Z,61.53
2018-06-08T09:10:19.224Z,56.23
2018-06-08T09:12:49.393Z,50.63
2018-06-08T09:15:21.218Z,51.83
2018-06-08T09:17:51.004Z,51.37
2018-06-08T09:20:24.197Z,52.90
2018-06-08T09:22:54.968Z,57.17
2018-06-08T09:25:25.766Z,56.93
2018-06-08T09:27:55.321Z,58.60
2018-06-08T09:30:27.436Z,60.90
2018-06-08T09:32:56.223Z,48.57
2018-06-08T09:35:32.616Z,50.07
2018-06-08T09:38:03.469Z,49.77
2018-06-08T09:40:32.533Z,41.63
2018-06-08T09:43:03.182Z,48.80
2018-06-08T09:45:35.592Z,47.10
2018-06-08T09:48:06.994Z,42.47
2018-06-08T09:50:37.791Z,46.17
2018-06-08T09:53:07.799Z,48.50
2018-06-08T09:55:39.277Z,43.50
2018-06-08T09:58:10.702Z,43.23
2018-06-08T10:00:44.105Z,43.97
2018-06-08T10:03:20.337Z,44.23
2018-06-08T10:05:54.476Z,44.00
2018-06-08T10:11:00.732Z,37.80
2018-06-08T10:13:30.598Z,40.37
2018-06-08T10:16:02.136Z,37.50
2018-06-08T10:18:31.242Z,37.13
2018-06-08T10:21:01.312Z,35.17
2018-06-08T10:23:31.384Z,36.30
2018-06-08T10:26:00.595Z,36.80
2018-06-08T10:28:30.469Z,34.27
2018-06-08T10:30:59.695Z,35.83
2018-06-08T10:33:28.803Z,35.33
2018-06-08T10:35:59.243Z,34.80
2018-06-08T10:38:29.112Z,39.23
2018-06-08T10:41:03.285Z,38.73
2018-06-08T10:43:33.018Z,36.60
2018-06-08T10:46:05.709Z,44.00
2018-06-08T10:48:35.053Z,41.60
2018-06-08T10:51:08.165Z,35.17
2018-06-08T10:53:37.217Z,38.03
2018-06-08T10:56:11.282Z,39.83
2018-06-08T10:58:41.333Z,44.83
2018-06-08T11:01:13.664Z,45.50
2018-06-08T11:03:45.141Z,46.93
2018-06-08T11:06:14.186Z,45.30
2018-06-08T11:08:43.241Z,47.70
2018-06-08T11:11:20.491Z,42.60
2018-06-08T11:13:52.317Z,46.53
2018-06-08T11:16:22.279Z,42.57
2018-06-08T11:18:52.093Z,41.57
2018-06-08T11:21:23.147Z,44.03
2018-06-08T11:23:54.653Z,43.27
2018-06-08T11:26:25.325Z,42.77
2018-06-08T11:28:54.313Z,44.80
2018-06-08T11:31:27.561Z,44.57
2018-06-08T11:33:56.723Z,43.97
2018-06-08T11:36:29.562Z,43.97
2018-06-08T11:38:58.691Z,45.43
2018-06-08T11:41:30.224Z,45.63
2018-06-08T11:43:59.193Z,46.83
2018-06-08T11:46:35.555Z,41.60
2018-06-08T11:49:05.900Z,30.20
2018-06-08T11:51:35.624Z,28.20
2018-06-08T11:54:06.269Z,27.50
2018-06-08T11:56:38.276Z,22.57
2018-06-08T11:59:08.070Z,23.37
2018-06-08T12:01:40.728Z,23.93
2018-06-08T12:04:09.655Z,23.23
2018-06-08T12:06:43.931Z,23.83
2018-06-08T12:09:13.925Z,24.90
2018-06-08T12:11:45.210Z,26.43
2018-06-08T12:14:14.473Z,24.03
2018-06-08T12:16:52.832Z,25.67
2018-06-08T12:19:22.941Z,24.27
2018-06-08T12:21:52.720Z,25.30
2018-06-08T12:24:23.037Z,24.07
2018-06-08T12:26:53.669Z,24.67
2018-06-08T12:29:23.843Z,24.07
2018-06-08T12:31:56.597Z,23.37
2018-06-08T12:34:29.071Z,21.70
2018-06-08T12:37:02.725Z,21.83
2018-06-08T12:39:32.616Z,20.93
2018-06-08T12:42:02.915Z,18.97
2018-06-08T12:44:34.269Z,18.03
2018-06-08T12:48:33.948Z,15.07
2018-06-08T12:51:12.412Z,16.67
2018-06-08T12:53:44.721Z,16.23
2018-06-08T12:56:17.651Z,14.83
2018-06-08T12:58:48.673Z,15.50
2018-06-08T13:03:54.544Z,15.37
2018-06-08T13:06:24.906Z,14.90
2018-06-08T13:08:55.661Z,15.07
2018-06-08T13:11:26.341Z,14.87
2018-06-08T13:13:57.334Z,13.23
2018-06-08T13:16:30.282Z,13.73
2018-06-08T13:19:05.304Z,13.73
2018-06-08T13:21:37.182Z,13.63
2018-06-08T13:24:08.487Z,15.20
2018-06-08T13:26:44.819Z,14.20
2018-06-08T13:29:22.712Z,14.43
2018-06-08T13:31:55.415Z,15.23
2018-06-08T13:34:27.098Z,13.10
2018-06-08T13:36:58.653Z,13.43
2018-06-08T13:39:33.048Z,13.73
2018-06-08T13:42:06.629Z,12.17
2018-06-08T13:44:36.393Z,13.10
2018-06-08T13:47:07.362Z,12.43
2018-06-08T13:49:50.632Z,13.53
2018-06-08T13:52:21.322Z,10.80
2018-06-08T13:54:56.071Z,10.23
2018-06-08T13:57:25.746Z,10.87
2018-06-08T13:59:57.477Z,11.53
2018-06-08T14:02:27.303Z,10.73
2018-06-08T14:04:56.076Z,10.83
2018-06-08T14:07:25.157Z,8.60
2018-06-08T14:09:54.724Z,9.83
2018-06-08T14:12:24.089Z,9.47
2018-06-08T14:14:56.323Z,9.23
2018-06-08T14:17:25.348Z,9.23
2018-06-08T14:19:54.700Z,9.43
2018-06-08T14:22:24.793Z,10.63
2018-06-08T14:24:54.521Z,10.47
2018-06-08T14:27:23.292Z,9.30
2018-06-08T14:29:52.972Z,9.47
2018-06-08T14:32:21.931Z,10.23
2018-06-08T14:37:34.333Z,9.57
2018-06-08T14:40:03.481Z,10.33
2018-06-08T14:42:32.569Z,10.00
2018-06-08T14:45:01.720Z,10.67
2018-06-08T14:47:32.206Z,11.83
2018-06-08T14:50:05.287Z,9.37
2018-06-08T14:52:36.206Z,8.30
2018-06-08T14:55:14.729Z,8.13
2018-06-08T14:57:44.499Z,9.73
2018-06-08T15:00:16.026Z,10.10
2018-06-08T15:02:50.275Z,10.00
2018-06-08T15:07:56.670Z,11.07
2018-06-08T15:10:26.191Z,10.83
2018-06-08T15:12:55.750Z,12.13
2018-06-08T15:15:24.965Z,11.67
2018-06-08T15:17:53.997Z,12.57
2018-06-08T15:20:24.737Z,12.17
2018-06-08T15:22:54.192Z,12.13
2018-06-08T15:25:23.195Z,10.90
2018-06-08T15:27:52.577Z,12.20
2018-06-08T15:30:24.344Z,12.27
2018-06-08T15:32:57.962Z,9.47
2018-06-08T15:35:27.709Z,10.57
2018-06-08T15:37:56.957Z,11.63
2018-06-08T15:40:27.547Z,13.50
2018-06-08T15:42:57.003Z,11.60
2018-06-08T15:45:32.860Z,11.60
2018-06-08T15:48:02.157Z,11.40
2018-06-08T15:50:32.493Z,12.00
2018-06-08T15:53:03.456Z,12.43
2018-06-08T15:55:36.276Z,11.63
2018-06-08T15:58:05.585Z,13.70
2018-06-08T16:00:38.164Z,13.83
2018-06-08T16:03:07.478Z,13.77
2018-06-08T16:05:43.352Z,13.67
2018-06-08T16:08:14.720Z,14.13
2018-06-08T16:10:43.764Z,15.00
2018-06-08T16:13:15.085Z,14.57
2018-06-08T16:15:45.310Z,13.00
2018-06-08T16:18:18.212Z,15.20
2018-06-08T16:20:47.296Z,13.57
2018-06-08T16:23:16.160Z,14.07
2018-06-08T16:25:53.095Z,13.83
2018-06-08T16:28:22.089Z,13.23
2018-06-08T16:30:51.812Z,16.70
2018-06-08T16:33:21.196Z,15.90
2018-06-08T16:35:59.707Z,14.77
2018-06-08T16:38:29.659Z,16.03
2018-06-08T16:40:59.957Z,16.20
2018-06-08T16:43:29.962Z,16.20
2018-06-08T16:46:01.289Z,14.70
2018-06-08T16:48:30.292Z,14.37
2018-06-08T16:51:00.163Z,14.80
2018-06-08T16:53:33.187Z,15.40
2018-06-08T16:56:01.997Z,15.50
2018-06-08T16:58:31.187Z,15.57
2018-06-08T17:01:02.404Z,13.80
2018-06-08T17:03:31.361Z,17.57
2018-06-08T17:06:00.179Z,17.17
2018-06-08T17:08:29.566Z,17.30
2018-06-08T17:10:59.417Z,17.57
2018-06-08T17:13:29.715Z,16.37
2018-06-08T17:16:00.147Z,16.90
2018-06-08T17:18:29.168Z,17.43
2018-06-08T17:20:59.238Z,16.37
2018-06-08T17:23:32.261Z,16.83
2018-06-08T17:28:44.576Z,17.17
2018-06-08T17:31:18.866Z,16.03
2018-06-08T17:33:49.790Z,16.90
2018-06-08T17:36:20.093Z,17.80
2018-06-08T17:38:49.718Z,15.77
2018-06-08T17:41:21.292Z,19.27
2018-06-08T17:43:51.173Z,15.27
2018-06-08T17:46:24.176Z,19.03
2018-06-08T17:48:53.171Z,17.70
2018-06-08T17:51:22.198Z,18.80
2018-06-08T17:53:51.676Z,17.07
2018-06-08T17:56:22.128Z,20.13
2018-06-08T17:58:51.188Z,17.57
2018-06-08T18:01:22.268Z,18.10
2018-06-08T18:03:51.661Z,16.37
2018-06-08T18:06:20.727Z,16.33
2018-06-08T18:08:49.928Z,17.27
2018-06-08T18:11:20.853Z,19.10
2018-06-08T18:13:51.328Z,19.73
2018-06-08T18:16:23.498Z,20.70
2018-06-08T18:18:56.709Z,18.70
2018-06-08T18:21:27.839Z,18.90
2018-06-08T18:23:58.994Z,22.07
2018-06-08T18:26:28.780Z,19.10
2018-06-08T18:28:59.324Z,20.33
2018-06-08T18:31:31.094Z,20.47
2018-06-08T18:34:01.525Z,19.47
2018-06-08T18:36:39.230Z,19.17
2018-06-08T18:39:14.199Z,18.80
2018-06-08T18:41:44.687Z,19.30
2018-06-08T18:44:15.382Z,18.67
2018-06-08T18:46:49.786Z,18.73
2018-06-08T18:49:19.642Z,19.43
2018-06-08T18:51:53.242Z,17.10
2018-06-08T18:54:23.751Z,19.80
2018-06-08T18:56:54.212Z,21.77
2018-06-08T18:59:25.692Z,19.23
2018-06-08T19:01:58.536Z,19.47
2018-06-08T19:04:33.201Z,19.87
2018-06-08T19:07:04.062Z,17.40
2018-06-08T19:09:36.190Z,17.93
2018-06-08T19:12:15.469Z,16.77
2018-06-08T19:14:46.673Z,18.13
2018-06-08T19:17:18.953Z,20.03
2018-06-08T19:19:49.096Z,18.67
2018-06-08T19:22:19.506Z,21.83
2018-06-08T19:24:52.371Z,18.83
2018-06-08T19:27:23.760Z,18.83
2018-06-08T19:29:53.414Z,17.80
2018-06-08T19:32:24.237Z,20.53
2018-06-08T19:34:56.055Z,18.63
2018-06-08T19:37:25.621Z,20.20
2018-06-08T19:39:58.495Z,18.77
2018-06-08T19:42:27.774Z,20.87
2018-06-08T19:44:59.257Z,24.07
2018-06-08T19:47:28.455Z,19.33
2018-06-08T19:49:59.146Z,18.67
2018-06-08T19:52:28.867Z,20.67
2018-06-08T19:54:59.799Z,20.47
2018-06-08T19:57:33.022Z,19.77
2018-06-08T20:00:03.298Z,20.97
2018-06-08T20:02:34.277Z,18.07
2018-06-08T20:05:18.788Z,21.97
2018-06-08T20:07:48.128Z,19.50
2018-06-08T20:10:21.529Z,20.30
2018-06-08T20:12:50.794Z,20.57
2018-06-08T20:15:21.733Z,20.27
2018-06-08T20:17:52.323Z,22.07
2018-06-08T20:20:24.168Z,23.47
2018-06-08T20:22:54.745Z,26.93
2018-06-08T20:25:24.664Z,23.07
2018-06-08T20:27:55.474Z,21.47
2018-06-08T20:30:31.552Z,22.53
2018-06-08T20:33:01.660Z,23.67
2018-06-08T20:35:31.988Z,22.40
2018-06-08T20:38:01.711Z,22.83
2018-06-08T20:40:32.125Z,24.43
2018-06-08T20:43:03.439Z,24.57
2018-06-08T20:45:36.128Z,25.53
2018-06-08T20:48:12.678Z,27.80
2018-06-08T20:50:42.495Z,27.03
2018-06-08T20:53:23.825Z,32.70
2018-06-08T20:55:54.201Z,29.37
2018-06-08T20:58:29.326Z,27.27
2018-06-08T21:00:59.718Z,32.00
2018-06-08T21:03:33.068Z,31.90
2018-06-08T21:06:04.832Z,28.50
2018-06-08T21:08:41.416Z,27.67
2018-06-08T21:11:22.679Z,27.93
2018-06-08T21:13:53.085Z,31.80
2018-06-08T21:16:23.179Z,27.90
2018-06-08T21:18:53.137Z,31.73
2018-06-08T21:21:25.848Z,31.17
2018-06-08T21:23:55.180Z,33.30
2018-06-08T21:26:25.289Z,32.17
2018-06-08T21:28:56.694Z,30.13
2018-06-08T21:31:26.729Z,31.50
2018-06-08T21:34:05.548Z,30.80
2018-06-08T21:36:38.326Z,31.00
2018-06-08T21:39:09.623Z,33.67
2018-06-08T21:41:42.753Z,32.20
2018-06-08T21:44:13.681Z,31.67
2018-06-08T21:46:43.095Z,34.77
2018-06-08T21:49:12.417Z,35.53
2018-06-08T21:51:44.303Z,32.43
2018-06-08T21:54:14.539Z,33.17
2018-06-08T21:59:17.552Z,36.50
2018-06-08T22:01:50.084Z,37.03
2018-06-08T22:04:21.702Z,37.20
2018-06-08T22:06:52.283Z,36.33
2018-06-08T22:09:23.380Z,36.83
2018-06-08T22:12:00.597Z,41.00
2018-06-08T22:14:34.229Z,37.03
2018-06-08T22:17:06.922Z,37.07
2018-06-08T22:19:37.232Z,36.70
2018-06-08T22:22:07.807Z,37.23
2018-06-08T22:24:40.759Z,42.53
2018-06-08T22:27:10.376Z,41.93
2018-06-08T22:29:40.614Z,41.47
2018-06-08T22:32:10.794Z,46.53
2018-06-08T22:34:40.467Z,39.60
2018-06-08T22:37:12.041Z,40.70
2018-06-08T22:39:41.500Z,39.97
2018-06-08T22:42:11.346Z,41.37
2018-06-08T22:44:44.097Z,42.70
2018-06-08T22:47:16.114Z,42.37
2018-06-08T22:49:51.367Z,45.83
2018-06-08T22:52:23.401Z,44.87
2018-06-08T22:54:54.764Z,45.17
2018-06-08T22:57:39.299Z,45.03
2018-06-08T23:00:12.505Z,44.47
2018-06-08T23:02:44.418Z,44.23
2018-06-08T23:05:20.640Z,43.07
2018-06-08T23:07:58.617Z,47.20
2018-06-08T23:10:32.345Z,48.20
2018-06-08T23:13:33.637Z,49.07
2018-06-08T23:16:05.330Z,47.33
2018-06-08T23:19:07.669Z,46.33
2018-06-08T23:21:51.195Z,48.67
2018-06-08T23:24:25.918Z,52.13
2018-06-08T23:27:00.177Z,48.57
2018-06-08T23:29:29.355Z,49.10
2018-06-08T23:32:01.352Z,48.67
2018-06-08T23:34:38.209Z,47.33
2018-06-08T23:37:12.423Z,52.50
2018-06-08T23:39:41.722Z,52.10
2018-06-08T23:42:12.400Z,48.47
2018-06-08T23:44:41.522Z,50.90
2018-06-08T23:47:13.386Z,51.97
2018-06-08T23:49:43.399Z,50.53
2018-06-08T23:52:13.479Z,51.87
2018-06-08T23:54:45.073Z,52.60
2018-06-08T23:57:14.814Z,53.50
2018-06-08T23:59:47.740Z,52.33
